createdAt,value
2022-12-19T00:01:30.404Z,18.10
2022-12-19T00:04:20.011Z,20.65
2022-12-19T00:07:07.442Z,18.58
2022-12-19T00:09:55.892Z,18.60
2022-12-19T00:12:43.300Z,18.35
2022-12-19T00:15:30.799Z,20.85
2022-12-19T00:18:18.442Z,16.92
2022-12-19T00:21:07.215Z,18.08
2022-12-19T00:23:54.916Z,15.85
2022-12-19T00:26:43.851Z,15.50
2022-12-19T00:29:31.341Z,19.77
2022-12-19T00:32:18.768Z,18.92
2022-12-19T00:35:06.900Z,16.20
2022-12-19T00:37:54.486Z,15.55
2022-12-19T00:40:41.851Z,16.63
2022-12-19T00:43:30.390Z,16.38
2022-12-19T00:46:17.699Z,15.38
2022-12-19T00:49:04.759Z,13.93
2022-12-19T00:51:51.695Z,15.43
2022-12-19T00:54:38.831Z,11.55
2022-12-19T00:57:25.755Z,15.93
2022-12-19T01:00:15.108Z,12.77
2022-12-19T01:03:02.307Z,14.95
2022-12-19T01:05:53.063Z,11.45
2022-12-19T01:08:40.468Z,13.10
2022-12-19T01:11:41.449Z,10.95
2022-12-19T01:14:28.652Z,15.68
2022-12-19T01:17:18.701Z,15.13
2022-12-19T01:20:08.156Z,14.15
2022-12-19T01:22:58.879Z,12.85
2022-12-19T01:25:51.268Z,14.60
2022-12-19T01:28:40.621Z,14.63
2022-12-19T01:31:30.053Z,14.10
2022-12-19T01:34:20.412Z,11.63
2022-12-19T01:37:09.938Z,15.60
2022-12-19T01:39:59.265Z,14.05
2022-12-19T01:42:49.390Z,13.10
2022-12-19T01:45:45.339Z,16.60
2022-12-19T01:48:36.355Z,16.48
2022-12-19T01:51:28.769Z,15.80
2022-12-19T01:54:20.075Z,12.73
2022-12-19T01:57:11.382Z,15.90
2022-12-19T02:00:02.013Z,16.08
2022-12-19T02:02:53.432Z,16.42
2022-12-19T02:05:42.782Z,17.63
2022-12-19T02:08:33.395Z,15.73
2022-12-19T02:11:24.197Z,15.20
2022-12-19T02:14:13.284Z,17.75
2022-12-19T02:17:05.910Z,12.57
2022-12-19T02:20:09.648Z,16.77
2022-12-19T02:23:07.623Z,14.60
2022-12-19T02:26:07.890Z,16.67
2022-12-19T02:28:59.987Z,16.73
2022-12-19T02:31:49.772Z,17.08
2022-12-19T02:34:44.215Z,17.63
2022-12-19T02:37:33.817Z,20.65
2022-12-19T02:40:21.594Z,19.80
2022-12-19T02:43:10.336Z,21.23
2022-12-19T02:45:57.706Z,20.75
2022-12-19T02:48:46.844Z,19.55
2022-12-19T02:51:33.901Z,19.65
2022-12-19T02:54:20.758Z,17.10
2022-12-19T02:57:12.284Z,22.15
2022-12-19T03:00:04.819Z,19.85
2022-12-19T03:03:00.608Z,15.35
2022-12-19T03:05:55.792Z,18.42
2022-12-19T03:08:47.269Z,20.13
2022-12-19T03:11:36.073Z,20.75
2022-12-19T03:14:23.833Z,15.73
2022-12-19T03:17:11.112Z,16.50
2022-12-19T03:19:59.148Z,12.27
2022-12-19T03:22:47.838Z,18.13
2022-12-19T03:25:35.802Z,12.75
2022-12-19T03:28:28.942Z,18.17
2022-12-19T03:31:18.839Z,19.55
2022-12-19T03:34:13.804Z,14.55
2022-12-19T03:37:04.605Z,16.63
2022-12-19T03:39:56.198Z,18.40
2022-12-19T03:43:03.620Z,15.18
2022-12-19T03:45:57.627Z,16.70
2022-12-19T03:48:47.231Z,14.75
2022-12-19T03:51:42.588Z,18.10
2022-12-19T03:54:33.205Z,18.25
2022-12-19T03:57:29.012Z,16.20
2022-12-19T04:00:18.838Z,14.18
2022-12-19T04:03:06.794Z,13.27
2022-12-19T04:05:56.240Z,15.50
2022-12-19T04:08:43.832Z,16.77
2022-12-19T04:11:37.114Z,20.20
2022-12-19T04:14:29.142Z,16.10
2022-12-19T04:17:22.769Z,13.77
2022-12-19T04:20:13.392Z,18.00
2022-12-19T04:23:02.619Z,15.25
2022-12-19T04:25:53.327Z,16.23
2022-12-19T04:28:46.297Z,15.07
2022-12-19T04:31:36.215Z,18.88
2022-12-19T04:34:23.834Z,19.13
2022-12-19T04:37:12.400Z,15.50
2022-12-19T04:40:00.605Z,16.15
2022-12-19T04:42:48.147Z,18.40
2022-12-19T04:45:35.619Z,16.00
2022-12-19T04:48:25.417Z,9.48
2022-12-19T04:51:12.902Z,15.40
2022-12-19T04:54:00.353Z,17.52
2022-12-19T04:56:47.782Z,19.38
2022-12-19T04:59:35.441Z,19.65
2022-12-19T05:02:24.125Z,18.30
2022-12-19T05:05:13.088Z,19.48
2022-12-19T05:08:00.575Z,16.98
2022-12-19T05:10:48.278Z,18.70
2022-12-19T05:13:36.309Z,18.13
2022-12-19T05:16:23.920Z,20.13
2022-12-19T05:19:11.111Z,17.30
2022-12-19T05:22:00.221Z,17.83
2022-12-19T05:24:48.534Z,15.85
2022-12-19T05:27:36.224Z,17.08
2022-12-19T05:30:24.597Z,11.43
2022-12-19T05:33:12.130Z,12.65
2022-12-19T05:35:59.691Z,18.77
2022-12-19T05:38:48.726Z,17.90
2022-12-19T05:41:36.189Z,19.25
2022-12-19T05:44:24.080Z,12.75
2022-12-19T05:47:11.810Z,17.92
2022-12-19T05:49:59.426Z,15.30
2022-12-19T05:52:46.775Z,16.30
2022-12-19T05:55:35.563Z,14.45
2022-12-19T05:58:23.287Z,17.63
2022-12-19T06:01:13.622Z,15.90
2022-12-19T06:04:00.894Z,16.75
2022-12-19T06:06:48.553Z,14.55
2022-12-19T06:09:35.847Z,13.73
2022-12-19T06:12:24.991Z,17.38
2022-12-19T06:15:12.644Z,16.55
2022-12-19T06:18:00.039Z,16.83
2022-12-19T06:20:57.093Z,17.48
2022-12-19T06:23:45.284Z,15.82
2022-12-19T06:26:32.580Z,18.23
2022-12-19T06:29:21.370Z,18.35
2022-12-19T06:32:08.791Z,16.13
2022-12-19T06:35:03.970Z,16.40
2022-12-19T06:37:54.365Z,18.33
2022-12-19T06:41:01.788Z,17.98
2022-12-19T06:43:53.304Z,16.50
2022-12-19T06:46:43.383Z,15.30
2022-12-19T06:49:30.887Z,19.25
2022-12-19T06:52:19.114Z,16.17
2022-12-19T06:55:07.575Z,18.73
2022-12-19T06:57:55.394Z,18.23
2022-12-19T07:00:42.821Z,17.88
2022-12-19T07:03:36.817Z,15.40
2022-12-19T07:06:24.781Z,16.65
2022-12-19T07:09:12.304Z,17.52
2022-12-19T07:11:59.406Z,18.60
2022-12-19T07:14:51.678Z,16.48
2022-12-19T07:17:40.795Z,13.65
2022-12-19T07:20:30.396Z,17.10
2022-12-19T07:23:21.076Z,17.55
2022-12-19T07:26:08.445Z,14.10
2022-12-19T07:28:55.984Z,16.75
2022-12-19T07:31:43.578Z,16.63
2022-12-19T07:34:31.192Z,19.05
2022-12-19T07:37:21.529Z,18.92
2022-12-19T07:40:10.907Z,17.65
2022-12-19T07:43:00.470Z,17.83
2022-12-19T07:45:47.960Z,17.77
2022-12-19T07:48:35.593Z,19.38
2022-12-19T07:51:23.270Z,15.52
2022-12-19T07:54:12.282Z,17.85
2022-12-19T07:56:59.822Z,15.73
2022-12-19T07:59:47.915Z,16.75
2022-12-19T08:02:35.740Z,16.60
2022-12-19T08:05:23.094Z,17.73
2022-12-19T08:08:10.578Z,13.82
2022-12-19T08:11:09.522Z,18.70
2022-12-19T08:13:57.292Z,18.13
2022-12-19T08:17:18.760Z,16.08
2022-12-19T08:19:52.369Z,19.17
2022-12-19T08:22:40.020Z,18.83
2022-12-19T08:25:27.977Z,15.75
2022-12-19T08:28:16.941Z,17.50
2022-12-19T08:31:07.907Z,14.25
2022-12-19T08:33:57.175Z,18.13
2022-12-19T08:36:44.709Z,15.30
2022-12-19T08:39:31.645Z,15.98
2022-12-19T08:42:18.685Z,14.95
2022-12-19T08:45:08.928Z,19.23
2022-12-19T08:47:56.832Z,17.98
2022-12-19T08:50:49.946Z,16.50
2022-12-19T08:53:39.535Z,13.95
2022-12-19T08:56:27.251Z,12.02
2022-12-19T08:59:18.724Z,15.10
2022-12-19T09:02:19.891Z,17.23
2022-12-19T09:06:00.118Z,15.52
2022-12-19T09:08:15.664Z,13.50
2022-12-19T09:11:05.596Z,17.05
2022-12-19T09:13:56.804Z,16.17
2022-12-19T09:16:44.450Z,15.10
2022-12-19T09:19:32.956Z,15.98
2022-12-19T09:22:21.194Z,16.42
2022-12-19T09:25:15.251Z,13.18
2022-12-19T09:28:27.013Z,16.95
2022-12-19T09:31:12.679Z,16.92
2022-12-19T09:33:59.827Z,15.70
2022-12-19T09:36:48.795Z,10.90
2022-12-19T09:39:36.370Z,17.05
2022-12-19T09:42:40.883Z,17.42
2022-12-19T09:45:34.691Z,15.57
2022-12-19T09:48:23.889Z,16.38
2022-12-19T09:51:13.841Z,15.27
2022-12-19T09:54:03.544Z,14.68
2022-12-19T09:56:57.297Z,17.05
2022-12-19T09:59:50.187Z,14.43
2022-12-19T10:02:43.440Z,15.98
2022-12-19T10:05:46.916Z,17.95
2022-12-19T10:09:17.514Z,17.33
2022-12-19T10:12:44.271Z,15.93
2022-12-19T10:15:21.374Z,14.15
2022-12-19T10:18:25.773Z,16.40
2022-12-19T10:21:50.826Z,17.70
2022-12-19T10:25:02.068Z,16.90
2022-12-19T10:28:01.526Z,15.68
2022-12-19T10:31:14.083Z,18.40
2022-12-19T10:34:17.448Z,16.95
2022-12-19T10:37:29.624Z,17.42
2022-12-19T10:40:29.764Z,17.08
2022-12-19T10:43:33.636Z,18.65
2022-12-19T10:49:17.804Z,17.10
2022-12-19T10:52:08.056Z,15.18
2022-12-19T10:54:55.626Z,18.98
2022-12-19T10:57:44.490Z,16.70
2022-12-19T11:00:34.962Z,18.17
2022-12-19T11:03:22.620Z,17.05
2022-12-19T11:06:46.501Z,19.42
2022-12-19T11:09:39.237Z,18.63
2022-12-19T11:17:09.091Z,16.65
2022-12-19T11:17:44.979Z,19.02
2022-12-19T11:26:32.427Z,18.77
2022-12-19T11:28:05.146Z,20.65
2022-12-19T11:30:21.353Z,18.00
2022-12-19T11:30:38.373Z,16.90
2022-12-19T11:34:37.271Z,17.48
2022-12-19T11:37:34.225Z,15.90
2022-12-19T11:40:33.124Z,16.70
2022-12-19T11:43:45.108Z,17.15
2022-12-19T11:46:42.016Z,17.48
2022-12-19T11:49:33.896Z,17.90
2022-12-19T11:55:46.233Z,18.33
2022-12-19T11:58:33.920Z,18.08
2022-12-19T12:01:40.427Z,17.10
2022-12-19T12:04:44.100Z,17.08
2022-12-19T12:08:38.025Z,15.30
2022-12-19T12:15:16.248Z,16.52
2022-12-19T12:21:38.661Z,17.48
2022-12-19T12:30:05.526Z,17.23
2022-12-19T12:31:31.888Z,16.48
2022-12-19T12:31:40.801Z,16.75
2022-12-19T12:31:40.924Z,15.45
2022-12-19T12:31:42.782Z,14.00
2022-12-19T12:35:46.392Z,18.55
2022-12-19T12:40:48.808Z,14.35
2022-12-19T12:43:47.788Z,16.77
2022-12-19T12:46:40.939Z,16.80
2022-12-19T12:49:39.810Z,18.13
2022-12-19T12:52:35.076Z,16.38
2022-12-19T12:55:27.725Z,12.48
2022-12-19T12:58:46.341Z,14.38
2022-12-19T13:01:35.880Z,15.20
2022-12-19T13:04:29.292Z,16.70
2022-12-19T13:07:27.062Z,14.60
2022-12-19T13:10:24.760Z,14.68
2022-12-19T13:13:21.096Z,17.20
2022-12-19T13:16:45.096Z,15.10
2022-12-19T13:19:34.548Z,13.85
2022-12-19T13:22:41.735Z,14.00
2022-12-19T13:25:48.664Z,13.93
2022-12-19T13:28:43.714Z,13.68
2022-12-19T13:31:37.060Z,15.07
2022-12-19T13:34:36.871Z,13.98
2022-12-19T13:39:55.161Z,15.32
2022-12-19T13:41:00.947Z,14.60
2022-12-19T13:43:49.730Z,14.98
2022-12-19T13:46:39.257Z,14.40
2022-12-19T13:49:34.196Z,13.38
2022-12-19T13:52:22.971Z,11.45
2022-12-19T13:55:14.673Z,14.20
2022-12-19T13:58:05.445Z,14.98
2022-12-19T14:00:54.874Z,14.52
2022-12-19T14:03:46.277Z,11.50
2022-12-19T14:06:43.098Z,15.25
2022-12-19T14:11:27.716Z,11.75
2022-12-19T14:14:01.155Z,13.88
2022-12-19T14:16:15.968Z,13.95
2022-12-19T14:19:03.348Z,13.32
2022-12-19T14:22:04.607Z,13.73
2022-12-19T14:25:06.996Z,12.90
2022-12-19T14:28:18.616Z,13.77
2022-12-19T14:31:18.116Z,12.10
2022-12-19T14:37:54.233Z,11.32
2022-12-19T14:40:43.319Z,9.75
2022-12-19T14:44:00.234Z,13.55
2022-12-19T14:54:17.437Z,12.50
2022-12-19T14:54:28.277Z,12.55
2022-12-19T14:54:31.033Z,12.15
2022-12-19T14:56:58.850Z,12.63
2022-12-19T14:59:47.881Z,10.00
2022-12-19T15:02:38.318Z,14.50
2022-12-19T15:05:27.608Z,12.35
2022-12-19T15:08:15.014Z,12.45
2022-12-19T15:11:34.953Z,11.63
2022-12-19T15:14:54.587Z,11.20
2022-12-19T15:17:47.665Z,12.98
2022-12-19T15:20:35.039Z,12.07
2022-12-19T15:23:23.001Z,9.90
2022-12-19T15:26:13.346Z,10.75
2022-12-19T15:29:01.925Z,11.38
2022-12-19T15:31:49.446Z,10.82
2022-12-19T15:34:50.742Z,10.38
2022-12-19T15:37:39.159Z,10.15
2022-12-19T15:40:26.615Z,10.70
2022-12-19T15:43:53.195Z,10.13
2022-12-19T15:46:27.829Z,9.60
2022-12-19T15:49:16.848Z,9.80
2022-12-19T15:52:14.450Z,9.93
2022-12-19T15:55:01.849Z,9.23
2022-12-19T15:57:52.897Z,7.55
2022-12-19T16:00:41.359Z,9.30
2022-12-19T16:03:29.597Z,9.07
2022-12-19T16:06:17.178Z,8.77
2022-12-19T16:09:19.465Z,8.63
2022-12-19T16:12:07.154Z,8.98
2022-12-19T16:14:59.051Z,8.55
2022-12-19T16:17:46.485Z,7.43
2022-12-19T16:20:36.158Z,6.85
2022-12-19T16:23:25.417Z,6.85
2022-12-19T16:26:25.249Z,8.13
2022-12-19T16:29:19.690Z,8.43
2022-12-19T16:32:07.178Z,7.30
2022-12-19T16:34:54.907Z,8.23
2022-12-19T16:37:42.542Z,8.07
2022-12-19T16:40:30.134Z,7.60
2022-12-19T16:43:31.703Z,9.25
2022-12-19T16:46:22.190Z,8.00
2022-12-19T16:49:14.822Z,7.90
2022-12-19T16:52:02.457Z,7.70
2022-12-19T16:54:51.057Z,7.82
2022-12-19T16:57:38.762Z,7.50
2022-12-19T17:00:27.865Z,8.18
2022-12-19T17:03:29.410Z,8.35
2022-12-19T17:06:18.375Z,7.60
2022-12-19T17:09:05.748Z,7.53
2022-12-19T17:11:56.921Z,8.43
2022-12-19T17:14:44.320Z,7.72
2022-12-19T17:17:33.990Z,7.95
2022-12-19T17:20:23.700Z,7.47
2022-12-19T17:23:14.311Z,8.27
2022-12-19T17:26:01.787Z,7.90
2022-12-19T17:28:49.128Z,6.82
2022-12-19T17:31:39.748Z,8.20
2022-12-19T17:34:31.643Z,7.30
2022-12-19T17:37:19.091Z,7.47
2022-12-19T17:40:16.636Z,7.20
2022-12-19T17:43:04.101Z,7.72
2022-12-19T17:45:52.829Z,7.20
2022-12-19T17:48:40.258Z,8.10
2022-12-19T17:51:29.220Z,7.43
2022-12-19T17:54:16.796Z,7.20
2022-12-19T17:57:04.643Z,7.35
2022-12-19T17:59:51.889Z,7.85
2022-12-19T18:02:39.360Z,7.07
2022-12-19T18:05:28.504Z,7.07
2022-12-19T18:08:24.352Z,8.05
2022-12-19T18:11:18.933Z,7.97
2022-12-19T18:14:06.520Z,7.25
2022-12-19T18:16:54.159Z,7.60
2022-12-19T18:19:41.503Z,8.07
2022-12-19T18:22:28.816Z,7.43
2022-12-19T18:25:20.426Z,6.80
2022-12-19T18:28:07.790Z,5.97
2022-12-19T18:31:01.285Z,7.90
2022-12-19T18:33:49.127Z,6.32
2022-12-19T18:36:41.420Z,6.75
2022-12-19T18:39:31.997Z,6.82
2022-12-19T18:42:22.072Z,6.82
2022-12-19T18:45:15.670Z,8.48
2022-12-19T18:48:05.242Z,8.43
2022-12-19T18:50:52.314Z,6.28
2022-12-19T18:53:39.789Z,8.30
2022-12-19T18:56:27.516Z,7.32
2022-12-19T18:59:16.306Z,7.10
2022-12-19T19:02:04.915Z,6.13
2022-12-19T19:04:52.772Z,6.90
2022-12-19T19:07:40.379Z,5.57
2022-12-19T19:10:31.037Z,5.00
2022-12-19T19:13:20.270Z,7.32
2022-12-19T19:16:17.041Z,7.15
2022-12-19T19:19:07.399Z,6.93
2022-12-19T19:21:55.425Z,7.22
2022-12-19T19:24:42.975Z,8.23
2022-12-19T19:27:30.621Z,8.45
2022-12-19T19:30:20.113Z,8.07
2022-12-19T19:33:14.193Z,6.80
2022-12-19T19:36:11.677Z,7.10
2022-12-19T19:38:59.863Z,7.72
2022-12-19T19:41:47.463Z,6.72
2022-12-19T19:44:35.150Z,7.05
2022-12-19T19:47:27.068Z,7.65
2022-12-19T19:50:15.984Z,7.57
2022-12-19T19:53:03.575Z,7.70
2022-12-19T19:55:56.428Z,6.90
2022-12-19T19:58:44.631Z,6.97
2022-12-19T20:01:32.594Z,7.30
2022-12-19T20:04:20.185Z,8.30
2022-12-19T20:07:08.967Z,6.78
2022-12-19T20:09:56.490Z,7.30
2022-12-19T20:12:44.165Z,7.43
2022-12-19T20:15:31.887Z,8.45
2022-12-19T20:18:19.475Z,7.95
2022-12-19T20:21:13.144Z,8.15
2022-12-19T20:24:02.687Z,8.20
2022-12-19T20:26:50.386Z,8.13
2022-12-19T20:29:38.538Z,7.43
2022-12-19T20:32:25.856Z,7.80
2022-12-19T20:35:15.030Z,8.60
2022-12-19T20:38:02.844Z,8.52
2022-12-19T20:40:52.575Z,7.68
2022-12-19T20:43:40.362Z,8.52
2022-12-19T20:46:27.891Z,8.52
2022-12-19T20:49:15.403Z,7.57
2022-12-19T20:52:02.702Z,7.68
2022-12-19T20:54:50.417Z,9.13
2022-12-19T20:57:39.171Z,8.93
2022-12-19T21:00:27.245Z,8.82
2022-12-19T21:03:27.591Z,7.43
2022-12-19T21:06:17.567Z,9.00
2022-12-19T21:09:06.236Z,9.60
2022-12-19T21:11:53.679Z,9.63
2022-12-19T21:14:43.563Z,8.82
2022-12-19T21:17:31.176Z,9.13
2022-12-19T21:20:18.597Z,8.90
2022-12-19T21:23:06.799Z,8.00
2022-12-19T21:25:57.577Z,8.40
2022-12-19T21:28:45.527Z,7.57
2022-12-19T21:31:34.646Z,7.57
2022-12-19T21:34:22.310Z,7.68
2022-12-19T21:37:09.640Z,7.60
2022-12-19T21:39:57.207Z,8.25
2022-12-19T21:42:44.737Z,7.97
2022-12-19T21:45:32.198Z,7.13
2022-12-19T21:48:21.334Z,7.78
2022-12-19T21:51:10.535Z,7.32
2022-12-19T21:54:01.538Z,7.28
2022-12-19T21:56:48.671Z,8.48
2022-12-19T21:59:36.194Z,8.00
2022-12-19T22:02:23.903Z,7.68
2022-12-19T22:05:12.587Z,7.90
2022-12-19T22:08:00.438Z,8.32
2022-12-19T22:10:47.827Z,8.07
2022-12-19T22:13:35.561Z,7.88
2022-12-19T22:16:24.023Z,8.02
2022-12-19T22:19:13.545Z,8.35
2022-12-19T22:22:02.453Z,8.40
2022-12-19T22:24:50.010Z,7.60
2022-12-19T22:27:37.702Z,7.93
2022-12-19T22:30:25.142Z,8.52
2022-12-19T22:33:13.079Z,7.25
2022-12-19T22:36:06.126Z,6.85
2022-12-19T22:38:55.240Z,7.60
2022-12-19T22:41:43.769Z,6.07
2022-12-19T22:44:31.441Z,7.78
2022-12-19T22:47:19.265Z,6.43
2022-12-19T22:50:08.075Z,6.15
2022-12-19T22:52:55.750Z,6.32
2022-12-19T22:55:44.788Z,6.22
2022-12-19T22:58:32.307Z,5.60
2022-12-19T23:01:22.689Z,5.68
2022-12-19T23:04:12.902Z,5.70
2022-12-19T23:07:00.631Z,5.53
2022-12-19T23:09:48.244Z,6.13
2022-12-19T23:12:37.396Z,5.45
2022-12-19T23:15:24.629Z,4.72
2022-12-19T23:18:12.388Z,6.20
2022-12-19T23:21:04.512Z,5.47
2022-12-19T23:23:57.625Z,5.50
2022-12-19T23:26:45.499Z,5.18
2022-12-19T23:29:34.081Z,4.95
2022-12-19T23:32:21.583Z,5.88
2022-12-19T23:35:09.804Z,5.13
2022-12-19T23:37:57.243Z,5.28
2022-12-19T23:40:44.843Z,5.75
2022-12-19T23:43:33.361Z,5.70
2022-12-19T23:46:23.260Z,5.03
2022-12-19T23:49:10.761Z,5.80
2022-12-19T23:51:58.455Z,4.78
2022-12-19T23:54:47.220Z,5.65
2022-12-19T23:57:34.586Z,5.38
